sensor_id;sensor_type;location;lat;lon;timestamp;temperature;humidity
20750;DHT22;10535;50.664;4.564;2023-12-14T00:00:29;9.30;99.90
20750;DHT22;10535;50.664;4.564;2023-12-14T00:02:56;9.30;99.90
20750;DHT22;10535;50.664;4.564;2023-12-14T00:05:21;9.40;99.90
20750;DHT22;10535;50.664;4.564;2023-12-14T00:07:47;9.40;99.90
20750;DHT22;10535;50.664;4.564;2023-12-14T00:10:13;9.40;99.90
20750;DHT22;10535;50.664;4.564;2023-12-14T00:12:38;9.30;99.90
20750;DHT22;10535;50.664;4.564;2023-12-14T00:15:05;9.40;99.90
20750;DHT22;10535;50.664;4.564;2023-12-14T00:17:31;9.30;99.90
20750;DHT22;10535;50.664;4.564;2023-12-14T00:19:56;9.30;99.90
20750;DHT22;10535;50.664;4.564;2023-12-14T00:22:22;9.30;99.90
20750;DHT22;10535;50.664;4.564;2023-12-14T00:24:48;9.30;99.90
20750;DHT22;10535;50.664;4.564;2023-12-14T00:27:13;9.20;99.90
20750;DHT22;10535;50.664;4.564;2023-12-14T00:29:39;9.20;99.90
20750;DHT22;10535;50.664;4.564;2023-12-14T00:32:05;9.20;99.90
20750;DHT22;10535;50.664;4.564;2023-12-14T00:34:30;9.20;99.90
20750;DHT22;10535;50.664;4.564;2023-12-14T00:36:56;9.20;99.90
20750;DHT22;10535;50.664;4.564;2023-12-14T00:39:22;9.30;99.90
20750;DHT22;10535;50.664;4.564;2023-12-14T00:41:47;9.30;99.90
20750;DHT22;10535;50.664;4.564;2023-12-14T00:44:13;9.50;99.90
20750;DHT22;10535;50.664;4.564;2023-12-14T00:46:38;9.40;99.90
20750;DHT22;10535;50.664;4.564;2023-12-14T00:49:04;9.40;99.90
20750;DHT22;10535;50.664;4.564;2023-12-14T00:51:30;9.40;99.90
20750;DHT22;10535;50.664;4.564;2023-12-14T00:53:55;9.20;99.90
20750;DHT22;10535;50.664;4.564;2023-12-14T00:56:21;9.10;99.90
20750;DHT22;10535;50.664;4.564;2023-12-14T00:58:47;9.20;99.90
20750;DHT22;10535;50.664;4.564;2023-12-14T01:01:12;9.20;99.90
20750;DHT22;10535;50.664;4.564;2023-12-14T01:03:38;9.20;99.90
20750;DHT22;10535;50.664;4.564;2023-12-14T01:06:04;9.10;99.90
20750;DHT22;10535;50.664;4.564;2023-12-14T01:08:30;9.00;99.90
20750;DHT22;10535;50.664;4.564;2023-12-14T01:10:55;8.90;99.90
20750;DHT22;10535;50.664;4.564;2023-12-14T01:13:21;9.00;99.90
20750;DHT22;10535;50.664;4.564;2023-12-14T01:15:47;9.00;99.90
20750;DHT22;10535;50.664;4.564;2023-12-14T01:18:12;8.90;99.90
20750;DHT22;10535;50.664;4.564;2023-12-14T01:20:38;9.20;99.90
20750;DHT22;10535;50.664;4.564;2023-12-14T01:23:04;9.20;99.90
20750;DHT22;10535;50.664;4.564;2023-12-14T01:25:29;9.20;99.90
20750;DHT22;10535;50.664;4.564;2023-12-14T01:27:55;9.30;99.90
20750;DHT22;10535;50.664;4.564;2023-12-14T01:30:21;9.30;99.90
20750;DHT22;10535;50.664;4.564;2023-12-14T01:32:46;9.30;99.90
20750;DHT22;10535;50.664;4.564;2023-12-14T01:35:12;9.20;99.90
20750;DHT22;10535;50.664;4.564;2023-12-14T01:37:38;9.20;99.90
20750;DHT22;10535;50.664;4.564;2023-12-14T01:40:04;9.20;99.90
20750;DHT22;10535;50.664;4.564;2023-12-14T01:42:30;9.20;99.90
20750;DHT22;10535;50.664;4.564;2023-12-14T01:44:55;9.20;99.90
20750;DHT22;10535;50.664;4.564;2023-12-14T01:47:21;9.20;99.90
20750;DHT22;10535;50.664;4.564;2023-12-14T01:49:47;9.30;99.90
20750;DHT22;10535;50.664;4.564;2023-12-14T01:52:12;9.30;99.90
20750;DHT22;10535;50.664;4.564;2023-12-14T01:54:38;9.20;99.90
20750;DHT22;10535;50.664;4.564;2023-12-14T01:57:04;9.20;99.90
20750;DHT22;10535;50.664;4.564;2023-12-14T01:59:30;9.10;99.90
20750;DHT22;10535;50.664;4.564;2023-12-14T02:01:56;9.20;99.90
20750;DHT22;10535;50.664;4.564;2023-12-14T02:04:23;9.30;99.90
20750;DHT22;10535;50.664;4.564;2023-12-14T02:06:49;9.40;99.90
20750;DHT22;10535;50.664;4.564;2023-12-14T02:09:15;9.30;99.90
20750;DHT22;10535;50.664;4.564;2023-12-14T02:11:41;9.40;99.90
20750;DHT22;10535;50.664;4.564;2023-12-14T02:14:08;9.40;99.90
20750;DHT22;10535;50.664;4.564;2023-12-14T02:16:34;9.30;99.90
20750;DHT22;10535;50.664;4.564;2023-12-14T02:19:00;9.20;99.90
20750;DHT22;10535;50.664;4.564;2023-12-14T02:21:25;9.20;99.90
20750;DHT22;10535;50.664;4.564;2023-12-14T02:23:51;9.20;99.90
20750;DHT22;10535;50.664;4.564;2023-12-14T02:26:17;9.20;99.90
20750;DHT22;10535;50.664;4.564;2023-12-14T02:28:42;9.40;99.90
20750;DHT22;10535;50.664;4.564;2023-12-14T02:31:08;9.50;99.90
20750;DHT22;10535;50.664;4.564;2023-12-14T02:33:33;9.40;99.90
20750;DHT22;10535;50.664;4.564;2023-12-14T02:35:59;9.30;99.90
20750;DHT22;10535;50.664;4.564;2023-12-14T02:38:25;9.40;99.90
20750;DHT22;10535;50.664;4.564;2023-12-14T02:40:51;9.30;99.90
20750;DHT22;10535;50.664;4.564;2023-12-14T02:43:18;9.20;99.90
20750;DHT22;10535;50.664;4.564;2023-12-14T02:45:44;9.10;99.90
20750;DHT22;10535;50.664;4.564;2023-12-14T02:48:10;9.20;99.90
20750;DHT22;10535;50.664;4.564;2023-12-14T02:50:36;9.30;99.90
20750;DHT22;10535;50.664;4.564;2023-12-14T02:53:01;9.30;99.90
20750;DHT22;10535;50.664;4.564;2023-12-14T02:55:27;9.30;99.90
20750;DHT22;10535;50.664;4.564;2023-12-14T02:57:52;9.40;99.90
20750;DHT22;10535;50.664;4.564;2023-12-14T03:00:18;9.30;99.90
20750;DHT22;10535;50.664;4.564;2023-12-14T03:02:44;9.30;99.90
20750;DHT22;10535;50.664;4.564;2023-12-14T03:05:09;9.10;99.90
20750;DHT22;10535;50.664;4.564;2023-12-14T03:07:35;8.90;99.90
20750;DHT22;10535;50.664;4.564;2023-12-14T03:10:02;9.00;99.90
20750;DHT22;10535;50.664;4.564;2023-12-14T03:12:28;8.80;99.90
20750;DHT22;10535;50.664;4.564;2023-12-14T03:14:54;8.70;99.90
20750;DHT22;10535;50.664;4.564;2023-12-14T03:17:19;8.60;99.90
20750;DHT22;10535;50.664;4.564;2023-12-14T03:19:45;8.60;99.90
20750;DHT22;10535;50.664;4.564;2023-12-14T03:22:11;8.60;99.90
20750;DHT22;10535;50.664;4.564;2023-12-14T03:24:36;8.60;99.90
20750;DHT22;10535;50.664;4.564;2023-12-14T03:27:03;8.50;99.90
20750;DHT22;10535;50.664;4.564;2023-12-14T03:29:29;8.40;99.90
20750;DHT22;10535;50.664;4.564;2023-12-14T03:31:58;8.20;99.90
20750;DHT22;10535;50.664;4.564;2023-12-14T03:34:24;8.20;99.90
20750;DHT22;10535;50.664;4.564;2023-12-14T03:36:50;8.10;99.90
20750;DHT22;10535;50.664;4.564;2023-12-14T03:39:16;8.10;99.90
20750;DHT22;10535;50.664;4.564;2023-12-14T03:41:42;8.10;99.90
20750;DHT22;10535;50.664;4.564;2023-12-14T03:44:08;8.10;99.90
20750;DHT22;10535;50.664;4.564;2023-12-14T03:46:34;8.20;99.90
20750;DHT22;10535;50.664;4.564;2023-12-14T03:49:00;8.00;99.90
20750;DHT22;10535;50.664;4.564;2023-12-14T03:51:26;7.90;99.90
20750;DHT22;10535;50.664;4.564;2023-12-14T03:53:51;8.10;99.90
20750;DHT22;10535;50.664;4.564;2023-12-14T03:56:17;8.10;99.90
20750;DHT22;10535;50.664;4.564;2023-12-14T03:58:43;7.90;99.90
20750;DHT22;10535;50.664;4.564;2023-12-14T04:01:16;8.00;99.90
20750;DHT22;10535;50.664;4.564;2023-12-14T04:03:41;8.10;99.90
20750;DHT22;10535;50.664;4.564;2023-12-14T04:06:07;8.10;99.90
20750;DHT22;10535;50.664;4.564;2023-12-14T04:08:33;8.10;99.90
20750;DHT22;10535;50.664;4.564;2023-12-14T04:10:58;8.00;99.90
20750;DHT22;10535;50.664;4.564;2023-12-14T04:13:24;7.90;99.90
20750;DHT22;10535;50.664;4.564;2023-12-14T04:15:50;7.80;99.90
20750;DHT22;10535;50.664;4.564;2023-12-14T04:18:15;7.90;99.90
20750;DHT22;10535;50.664;4.564;2023-12-14T04:20:41;7.90;99.90
20750;DHT22;10535;50.664;4.564;2023-12-14T04:23:06;8.10;99.90
20750;DHT22;10535;50.664;4.564;2023-12-14T04:25:32;8.20;99.90
20750;DHT22;10535;50.664;4.564;2023-12-14T04:27:58;8.20;99.90
20750;DHT22;10535;50.664;4.564;2023-12-14T04:30:23;8.00;99.90
20750;DHT22;10535;50.664;4.564;2023-12-14T04:32:49;7.70;99.90
20750;DHT22;10535;50.664;4.564;2023-12-14T04:35:14;7.40;99.90
20750;DHT22;10535;50.664;4.564;2023-12-14T04:37:40;7.30;99.90
20750;DHT22;10535;50.664;4.564;2023-12-14T04:40:06;7.30;99.90
20750;DHT22;10535;50.664;4.564;2023-12-14T04:42:32;7.30;99.90
20750;DHT22;10535;50.664;4.564;2023-12-14T04:44:58;7.20;99.90
20750;DHT22;10535;50.664;4.564;2023-12-14T04:47:24;7.20;99.90
20750;DHT22;10535;50.664;4.564;2023-12-14T04:49:50;7.20;99.90
20750;DHT22;10535;50.664;4.564;2023-12-14T04:52:15;7.30;99.90
20750;DHT22;10535;50.664;4.564;2023-12-14T04:54:41;7.40;99.90
20750;DHT22;10535;50.664;4.564;2023-12-14T04:57:07;7.40;99.90
20750;DHT22;10535;50.664;4.564;2023-12-14T04:59:33;7.30;99.90
20750;DHT22;10535;50.664;4.564;2023-12-14T05:01:58;7.30;99.90
20750;DHT22;10535;50.664;4.564;2023-12-14T05:04:24;7.30;99.90
20750;DHT22;10535;50.664;4.564;2023-12-14T05:06:50;7.30;99.90
20750;DHT22;10535;50.664;4.564;2023-12-14T05:09:15;7.30;99.90
20750;DHT22;10535;50.664;4.564;2023-12-14T05:11:42;7.30;99.90
20750;DHT22;10535;50.664;4.564;2023-12-14T05:14:08;7.10;99.90
20750;DHT22;10535;50.664;4.564;2023-12-14T05:16:34;7.20;99.90
20750;DHT22;10535;50.664;4.564;2023-12-14T05:18:59;7.30;99.90
20750;DHT22;10535;50.664;4.564;2023-12-14T05:21:25;7.40;99.90
20750;DHT22;10535;50.664;4.564;2023-12-14T05:23:51;7.50;99.90
20750;DHT22;10535;50.664;4.564;2023-12-14T05:26:16;7.40;99.90
20750;DHT22;10535;50.664;4.564;2023-12-14T05:28:42;7.40;99.90
20750;DHT22;10535;50.664;4.564;2023-12-14T05:31:07;7.40;99.90
20750;DHT22;10535;50.664;4.564;2023-12-14T05:33:39;7.60;99.90
20750;DHT22;10535;50.664;4.564;2023-12-14T05:36:05;7.60;99.90
20750;DHT22;10535;50.664;4.564;2023-12-14T05:38:34;7.50;99.90
20750;DHT22;10535;50.664;4.564;2023-12-14T05:41:00;7.40;99.90
20750;DHT22;10535;50.664;4.564;2023-12-14T05:43:25;7.40;99.90
20750;DHT22;10535;50.664;4.564;2023-12-14T05:45:51;7.50;99.90
20750;DHT22;10535;50.664;4.564;2023-12-14T05:48:17;7.40;99.90
20750;DHT22;10535;50.664;4.564;2023-12-14T05:50:42;7.40;99.90
20750;DHT22;10535;50.664;4.564;2023-12-14T05:53:08;7.50;99.90
20750;DHT22;10535;50.664;4.564;2023-12-14T05:55:34;7.40;99.90
20750;DHT22;10535;50.664;4.564;2023-12-14T05:58:00;7.40;99.90
20750;DHT22;10535;50.664;4.564;2023-12-14T06:00:25;7.50;99.90
20750;DHT22;10535;50.664;4.564;2023-12-14T06:02:51;7.50;99.90
20750;DHT22;10535;50.664;4.564;2023-12-14T06:05:17;7.60;99.90
20750;DHT22;10535;50.664;4.564;2023-12-14T06:07:42;7.60;99.90
20750;DHT22;10535;50.664;4.564;2023-12-14T06:10:09;7.50;99.90
20750;DHT22;10535;50.664;4.564;2023-12-14T06:12:35;7.50;99.90
20750;DHT22;10535;50.664;4.564;2023-12-14T06:15:01;7.40;99.90
20750;DHT22;10535;50.664;4.564;2023-12-14T06:17:27;7.50;99.90
20750;DHT22;10535;50.664;4.564;2023-12-14T06:19:53;7.70;99.90
20750;DHT22;10535;50.664;4.564;2023-12-14T06:22:18;7.70;99.90
20750;DHT22;10535;50.664;4.564;2023-12-14T06:24:44;7.60;99.90
20750;DHT22;10535;50.664;4.564;2023-12-14T06:27:09;7.60;99.90
20750;DHT22;10535;50.664;4.564;2023-12-14T06:29:48;7.60;99.90
20750;DHT22;10535;50.664;4.564;2023-12-14T06:32:13;7.70;99.90
20750;DHT22;10535;50.664;4.564;2023-12-14T06:34:39;7.70;99.90
20750;DHT22;10535;50.664;4.564;2023-12-14T06:37:05;7.60;99.90
20750;DHT22;10535;50.664;4.564;2023-12-14T06:39:30;7.40;99.90
20750;DHT22;10535;50.664;4.564;2023-12-14T06:41:56;7.50;99.90
20750;DHT22;10535;50.664;4.564;2023-12-14T06:44:22;7.50;99.90
20750;DHT22;10535;50.664;4.564;2023-12-14T06:46:47;7.30;99.90
20750;DHT22;10535;50.664;4.564;2023-12-14T06:49:13;7.30;99.90
20750;DHT22;10535;50.664;4.564;2023-12-14T06:51:38;7.40;99.90
20750;DHT22;10535;50.664;4.564;2023-12-14T06:54:04;7.40;99.90
20750;DHT22;10535;50.664;4.564;2023-12-14T06:56:30;7.50;99.90
20750;DHT22;10535;50.664;4.564;2023-12-14T06:58:55;7.30;99.90
20750;DHT22;10535;50.664;4.564;2023-12-14T07:01:21;7.50;99.90
20750;DHT22;10535;50.664;4.564;2023-12-14T07:03:46;7.60;99.90
20750;DHT22;10535;50.664;4.564;2023-12-14T07:06:14;7.70;99.90
20750;DHT22;10535;50.664;4.564;2023-12-14T07:08:40;7.60;99.90
20750;DHT22;10535;50.664;4.564;2023-12-14T07:11:07;7.50;99.90
20750;DHT22;10535;50.664;4.564;2023-12-14T07:13:33;7.40;99.90
20750;DHT22;10535;50.664;4.564;2023-12-14T07:15:59;7.60;99.90
20750;DHT22;10535;50.664;4.564;2023-12-14T07:18:25;7.50;99.90
20750;DHT22;10535;50.664;4.564;2023-12-14T07:20:50;7.30;99.90
20750;DHT22;10535;50.664;4.564;2023-12-14T07:23:16;7.20;99.90
20750;DHT22;10535;50.664;4.564;2023-12-14T07:25:41;7.30;99.90
20750;DHT22;10535;50.664;4.564;2023-12-14T07:28:07;7.40;99.90
20750;DHT22;10535;50.664;4.564;2023-12-14T07:30:34;7.50;99.90
20750;DHT22;10535;50.664;4.564;2023-12-14T07:32:59;7.40;99.90
20750;DHT22;10535;50.664;4.564;2023-12-14T07:35:25;7.40;99.90
20750;DHT22;10535;50.664;4.564;2023-12-14T07:37:50;7.60;99.90
20750;DHT22;10535;50.664;4.564;2023-12-14T07:40:16;7.50;99.90
20750;DHT22;10535;50.664;4.564;2023-12-14T07:42:42;7.70;99.90
20750;DHT22;10535;50.664;4.564;2023-12-14T07:45:08;7.50;99.90
20750;DHT22;10535;50.664;4.564;2023-12-14T07:47:34;7.40;99.90
20750;DHT22;10535;50.664;4.564;2023-12-14T07:50:00;7.40;99.90
20750;DHT22;10535;50.664;4.564;2023-12-14T07:52:26;7.40;99.90
20750;DHT22;10535;50.664;4.564;2023-12-14T07:54:57;7.50;99.90
20750;DHT22;10535;50.664;4.564;2023-12-14T07:57:22;7.40;99.90
20750;DHT22;10535;50.664;4.564;2023-12-14T07:59:49;7.30;99.90
20750;DHT22;10535;50.664;4.564;2023-12-14T08:02:14;7.00;99.90
20750;DHT22;10535;50.664;4.564;2023-12-14T08:04:40;6.90;99.90
20750;DHT22;10535;50.664;4.564;2023-12-14T08:07:09;6.80;99.90
20750;DHT22;10535;50.664;4.564;2023-12-14T08:09:34;6.80;99.90
20750;DHT22;10535;50.664;4.564;2023-12-14T08:12:00;6.90;99.90
20750;DHT22;10535;50.664;4.564;2023-12-14T08:14:26;6.90;99.90
20750;DHT22;10535;50.664;4.564;2023-12-14T08:16:52;6.90;99.90
20750;DHT22;10535;50.664;4.564;2023-12-14T08:19:17;6.80;99.90
20750;DHT22;10535;50.664;4.564;2023-12-14T08:21:43;6.90;99.90
20750;DHT22;10535;50.664;4.564;2023-12-14T08:24:09;7.10;99.90
20750;DHT22;10535;50.664;4.564;2023-12-14T08:26:34;7.30;99.90
20750;DHT22;10535;50.664;4.564;2023-12-14T08:29:00;7.40;99.90
20750;DHT22;10535;50.664;4.564;2023-12-14T08:31:26;7.50;99.90
20750;DHT22;10535;50.664;4.564;2023-12-14T08:33:52;7.20;99.90
20750;DHT22;10535;50.664;4.564;2023-12-14T08:36:18;7.20;99.90
20750;DHT22;10535;50.664;4.564;2023-12-14T08:38:43;7.20;99.90
20750;DHT22;10535;50.664;4.564;2023-12-14T08:41:13;7.40;99.90
20750;DHT22;10535;50.664;4.564;2023-12-14T08:43:39;7.40;99.90
20750;DHT22;10535;50.664;4.564;2023-12-14T08:46:05;7.40;99.90
20750;DHT22;10535;50.664;4.564;2023-12-14T08:48:31;7.20;99.90
20750;DHT22;10535;50.664;4.564;2023-12-14T08:50:56;7.20;99.90
20750;DHT22;10535;50.664;4.564;2023-12-14T08:53:22;7.30;99.90
20750;DHT22;10535;50.664;4.564;2023-12-14T08:55:48;7.20;99.90
20750;DHT22;10535;50.664;4.564;2023-12-14T08:58:13;7.20;99.90
20750;DHT22;10535;50.664;4.564;2023-12-14T09:00:40;7.10;99.90
20750;DHT22;10535;50.664;4.564;2023-12-14T09:03:06;7.00;99.90
20750;DHT22;10535;50.664;4.564;2023-12-14T09:05:31;7.00;99.90
20750;DHT22;10535;50.664;4.564;2023-12-14T09:07:58;7.00;99.90
20750;DHT22;10535;50.664;4.564;2023-12-14T09:10:24;6.90;99.90
20750;DHT22;10535;50.664;4.564;2023-12-14T09:12:51;7.00;99.90
20750;DHT22;10535;50.664;4.564;2023-12-14T09:15:16;7.00;99.90
20750;DHT22;10535;50.664;4.564;2023-12-14T09:17:43;7.20;99.90
20750;DHT22;10535;50.664;4.564;2023-12-14T09:20:09;7.20;99.90
20750;DHT22;10535;50.664;4.564;2023-12-14T09:22:36;7.10;99.90
20750;DHT22;10535;50.664;4.564;2023-12-14T09:25:02;7.10;99.90
20750;DHT22;10535;50.664;4.564;2023-12-14T09:27:29;7.20;99.90
20750;DHT22;10535;50.664;4.564;2023-12-14T09:29:55;7.10;99.90
20750;DHT22;10535;50.664;4.564;2023-12-14T09:32:24;7.20;99.90
20750;DHT22;10535;50.664;4.564;2023-12-14T09:34:49;7.40;99.90
20750;DHT22;10535;50.664;4.564;2023-12-14T09:37:17;7.50;99.90
20750;DHT22;10535;50.664;4.564;2023-12-14T09:39:42;7.60;99.90
20750;DHT22;10535;50.664;4.564;2023-12-14T09:42:08;7.70;99.90
20750;DHT22;10535;50.664;4.564;2023-12-14T09:44:35;7.70;99.90
20750;DHT22;10535;50.664;4.564;2023-12-14T09:47:01;7.70;99.90
20750;DHT22;10535;50.664;4.564;2023-12-14T09:49:29;7.80;99.90
20750;DHT22;10535;50.664;4.564;2023-12-14T09:51:59;8.00;99.90
20750;DHT22;10535;50.664;4.564;2023-12-14T09:54:27;8.30;99.90
20750;DHT22;10535;50.664;4.564;2023-12-14T09:56:52;8.20;99.90
20750;DHT22;10535;50.664;4.564;2023-12-14T09:59:20;8.00;99.90
20750;DHT22;10535;50.664;4.564;2023-12-14T10:01:46;7.90;99.90
20750;DHT22;10535;50.664;4.564;2023-12-14T10:04:17;7.80;99.90
20750;DHT22;10535;50.664;4.564;2023-12-14T10:06:45;7.90;99.90
20750;DHT22;10535;50.664;4.564;2023-12-14T10:09:11;7.80;99.90
20750;DHT22;10535;50.664;4.564;2023-12-14T10:11:45;7.80;99.90
20750;DHT22;10535;50.664;4.564;2023-12-14T10:14:22;7.80;99.90
20750;DHT22;10535;50.664;4.564;2023-12-14T10:16:50;7.80;99.90
20750;DHT22;10535;50.664;4.564;2023-12-14T10:19:17;7.70;99.90
20750;DHT22;10535;50.664;4.564;2023-12-14T10:21:43;7.70;99.90
20750;DHT22;10535;50.664;4.564;2023-12-14T10:24:09;7.60;99.90
20750;DHT22;10535;50.664;4.564;2023-12-14T10:26:35;7.70;99.90
20750;DHT22;10535;50.664;4.564;2023-12-14T10:29:03;7.60;99.90
20750;DHT22;10535;50.664;4.564;2023-12-14T10:31:30;7.70;99.90
20750;DHT22;10535;50.664;4.564;2023-12-14T10:33:56;8.00;99.90
20750;DHT22;10535;50.664;4.564;2023-12-14T10:36:25;7.90;99.90
20750;DHT22;10535;50.664;4.564;2023-12-14T10:38:57;7.80;99.90
20750;DHT22;10535;50.664;4.564;2023-12-14T10:41:23;8.20;99.90
20750;DHT22;10535;50.664;4.564;2023-12-14T10:43:50;8.40;99.90
20750;DHT22;10535;50.664;4.564;2023-12-14T10:46:19;8.40;99.90
20750;DHT22;10535;50.664;4.564;2023-12-14T10:48:47;8.40;99.90
20750;DHT22;10535;50.664;4.564;2023-12-14T10:51:17;8.50;99.90
20750;DHT22;10535;50.664;4.564;2023-12-14T10:53:44;8.30;99.90
20750;DHT22;10535;50.664;4.564;2023-12-14T10:56:15;8.20;99.90
20750;DHT22;10535;50.664;4.564;2023-12-14T11:01:19;8.20;99.90
20750;DHT22;10535;50.664;4.564;2023-12-14T11:03:44;8.10;99.90
20750;DHT22;10535;50.664;4.564;2023-12-14T11:06:29;8.20;99.90
20750;DHT22;10535;50.664;4.564;2023-12-14T11:09:01;8.20;99.90
20750;DHT22;10535;50.664;4.564;2023-12-14T11:11:54;8.20;99.90
20750;DHT22;10535;50.664;4.564;2023-12-14T11:14:25;8.30;99.90
20750;DHT22;10535;50.664;4.564;2023-12-14T11:17:01;8.20;99.90
20750;DHT22;10535;50.664;4.564;2023-12-14T11:19:29;8.10;99.90
20750;DHT22;10535;50.664;4.564;2023-12-14T11:24:35;8.00;99.90
20750;DHT22;10535;50.664;4.564;2023-12-14T11:27:04;8.00;99.90
20750;DHT22;10535;50.664;4.564;2023-12-14T11:29:31;8.00;99.90
20750;DHT22;10535;50.664;4.564;2023-12-14T11:31:57;8.00;99.90
20750;DHT22;10535;50.664;4.564;2023-12-14T11:34:27;7.80;99.90
20750;DHT22;10535;50.664;4.564;2023-12-14T11:36:54;7.90;99.90
20750;DHT22;10535;50.664;4.564;2023-12-14T11:39:20;8.00;99.90
20750;DHT22;10535;50.664;4.564;2023-12-14T11:42:03;8.10;99.90
20750;DHT22;10535;50.664;4.564;2023-12-14T11:44:29;8.20;99.90
20750;DHT22;10535;50.664;4.564;2023-12-14T11:46:56;8.20;99.90
20750;DHT22;10535;50.664;4.564;2023-12-14T11:49:27;8.40;99.90
20750;DHT22;10535;50.664;4.564;2023-12-14T11:52:43;8.40;99.90
20750;DHT22;10535;50.664;4.564;2023-12-14T11:55:11;8.60;99.90
20750;DHT22;10535;50.664;4.564;2023-12-14T11:57:37;8.70;99.90
20750;DHT22;10535;50.664;4.564;2023-12-14T12:00:04;9.10;99.90
20750;DHT22;10535;50.664;4.564;2023-12-14T12:02:30;9.20;99.90
20750;DHT22;10535;50.664;4.564;2023-12-14T12:04:56;9.00;99.90
20750;DHT22;10535;50.664;4.564;2023-12-14T12:07:29;8.90;99.90
20750;DHT22;10535;50.664;4.564;2023-12-14T12:09:54;8.90;99.90
20750;DHT22;10535;50.664;4.564;2023-12-14T12:12:20;8.80;99.90
20750;DHT22;10535;50.664;4.564;2023-12-14T12:14:46;8.90;99.90
20750;DHT22;10535;50.664;4.564;2023-12-14T12:17:14;9.10;99.90
20750;DHT22;10535;50.664;4.564;2023-12-14T12:19:41;8.90;99.90
20750;DHT22;10535;50.664;4.564;2023-12-14T12:22:08;9.00;99.90
20750;DHT22;10535;50.664;4.564;2023-12-14T12:24:34;9.10;99.90
20750;DHT22;10535;50.664;4.564;2023-12-14T12:27:00;9.10;99.90
20750;DHT22;10535;50.664;4.564;2023-12-14T12:29:25;9.10;99.90
20750;DHT22;10535;50.664;4.564;2023-12-14T12:31:51;9.10;99.90
20750;DHT22;10535;50.664;4.564;2023-12-14T12:34:17;9.10;99.90
20750;DHT22;10535;50.664;4.564;2023-12-14T12:36:43;9.10;99.90
20750;DHT22;10535;50.664;4.564;2023-12-14T12:39:09;9.20;99.90
20750;DHT22;10535;50.664;4.564;2023-12-14T12:41:35;9.10;99.90
20750;DHT22;10535;50.664;4.564;2023-12-14T12:44:04;9.20;99.90
20750;DHT22;10535;50.664;4.564;2023-12-14T12:46:37;9.10;99.90
20750;DHT22;10535;50.664;4.564;2023-12-14T12:49:04;9.10;99.90
20750;DHT22;10535;50.664;4.564;2023-12-14T12:51:31;8.90;99.90
20750;DHT22;10535;50.664;4.564;2023-12-14T12:53:58;9.00;99.90
20750;DHT22;10535;50.664;4.564;2023-12-14T12:56:26;9.00;99.90
20750;DHT22;10535;50.664;4.564;2023-12-14T12:58:53;9.00;99.90
20750;DHT22;10535;50.664;4.564;2023-12-14T13:01:20;9.10;99.90
20750;DHT22;10535;50.664;4.564;2023-12-14T13:03:53;9.10;99.90
20750;DHT22;10535;50.664;4.564;2023-12-14T13:06:19;9.10;99.90
20750;DHT22;10535;50.664;4.564;2023-12-14T13:08:44;9.20;99.90
20750;DHT22;10535;50.664;4.564;2023-12-14T13:11:10;9.20;99.90
20750;DHT22;10535;50.664;4.564;2023-12-14T13:13:35;9.40;99.90
20750;DHT22;10535;50.664;4.564;2023-12-14T13:16:14;9.50;99.90
20750;DHT22;10535;50.664;4.564;2023-12-14T13:23:47;9.80;99.90
20750;DHT22;10535;50.664;4.564;2023-12-14T13:26:13;9.80;99.90
20750;DHT22;10535;50.664;4.564;2023-12-14T13:28:39;9.60;99.90
20750;DHT22;10535;50.664;4.564;2023-12-14T13:31:04;9.70;99.90
20750;DHT22;10535;50.664;4.564;2023-12-14T13:33:32;9.70;99.90
20750;DHT22;10535;50.664;4.564;2023-12-14T13:35:58;9.80;99.90
20750;DHT22;10535;50.664;4.564;2023-12-14T13:38:24;9.80;99.90
20750;DHT22;10535;50.664;4.564;2023-12-14T13:40:51;9.90;99.90
20750;DHT22;10535;50.664;4.564;2023-12-14T13:43:16;9.70;99.90
20750;DHT22;10535;50.664;4.564;2023-12-14T13:45:42;9.50;99.90
20750;DHT22;10535;50.664;4.564;2023-12-14T13:48:08;9.20;99.90
20750;DHT22;10535;50.664;4.564;2023-12-14T13:50:35;9.00;99.90
20750;DHT22;10535;50.664;4.564;2023-12-14T13:53:05;9.00;99.90
20750;DHT22;10535;50.664;4.564;2023-12-14T13:55:30;8.90;99.90
20750;DHT22;10535;50.664;4.564;2023-12-14T13:57:57;8.80;99.90
20750;DHT22;10535;50.664;4.564;2023-12-14T14:00:23;8.80;99.90
20750;DHT22;10535;50.664;4.564;2023-12-14T14:02:49;9.00;99.90
20750;DHT22;10535;50.664;4.564;2023-12-14T14:05:15;8.90;99.90
20750;DHT22;10535;50.664;4.564;2023-12-14T14:07:41;8.90;99.90
20750;DHT22;10535;50.664;4.564;2023-12-14T14:10:09;9.20;99.90
20750;DHT22;10535;50.664;4.564;2023-12-14T14:12:43;9.20;99.90
20750;DHT22;10535;50.664;4.564;2023-12-14T14:15:08;9.00;99.90
20750;DHT22;10535;50.664;4.564;2023-12-14T14:17:35;8.70;99.90
20750;DHT22;10535;50.664;4.564;2023-12-14T14:20:05;8.90;99.90
20750;DHT22;10535;50.664;4.564;2023-12-14T14:25:06;8.70;99.90
20750;DHT22;10535;50.664;4.564;2023-12-14T14:27:33;8.80;99.90
20750;DHT22;10535;50.664;4.564;2023-12-14T14:29:59;8.90;99.90
20750;DHT22;10535;50.664;4.564;2023-12-14T14:32:24;9.00;99.90
20750;DHT22;10535;50.664;4.564;2023-12-14T14:34:50;9.00;99.90
20750;DHT22;10535;50.664;4.564;2023-12-14T14:37:16;8.90;99.90
20750;DHT22;10535;50.664;4.564;2023-12-14T14:39:42;8.90;99.90
20750;DHT22;10535;50.664;4.564;2023-12-14T14:42:09;9.10;99.90
20750;DHT22;10535;50.664;4.564;2023-12-14T14:44:35;9.00;99.90
20750;DHT22;10535;50.664;4.564;2023-12-14T14:47:02;8.90;99.90
20750;DHT22;10535;50.664;4.564;2023-12-14T14:49:28;8.90;99.90
20750;DHT22;10535;50.664;4.564;2023-12-14T14:51:54;8.80;99.90
20750;DHT22;10535;50.664;4.564;2023-12-14T14:54:19;8.90;99.90
20750;DHT22;10535;50.664;4.564;2023-12-14T14:56:45;8.90;99.90
20750;DHT22;10535;50.664;4.564;2023-12-14T14:59:11;9.00;99.90
20750;DHT22;10535;50.664;4.564;2023-12-14T15:01:40;8.90;99.90
20750;DHT22;10535;50.664;4.564;2023-12-14T15:04:05;8.90;99.90
20750;DHT22;10535;50.664;4.564;2023-12-14T15:06:31;9.00;99.90
20750;DHT22;10535;50.664;4.564;2023-12-14T15:08:56;9.00;99.90
20750;DHT22;10535;50.664;4.564;2023-12-14T15:11:22;8.90;99.90
20750;DHT22;10535;50.664;4.564;2023-12-14T15:13:49;8.90;99.90
20750;DHT22;10535;50.664;4.564;2023-12-14T15:16:15;8.90;99.90
20750;DHT22;10535;50.664;4.564;2023-12-14T15:18:41;8.90;99.90
20750;DHT22;10535;50.664;4.564;2023-12-14T15:21:10;8.80;99.90
20750;DHT22;10535;50.664;4.564;2023-12-14T15:23:37;8.90;99.90
20750;DHT22;10535;50.664;4.564;2023-12-14T15:26:07;8.90;99.90
20750;DHT22;10535;50.664;4.564;2023-12-14T15:28:33;8.90;99.90
20750;DHT22;10535;50.664;4.564;2023-12-14T15:30:59;8.80;99.90
20750;DHT22;10535;50.664;4.564;2023-12-14T15:33:24;8.80;99.90
20750;DHT22;10535;50.664;4.564;2023-12-14T15:35:51;8.70;99.90
20750;DHT22;10535;50.664;4.564;2023-12-14T15:38:17;8.70;99.90
20750;DHT22;10535;50.664;4.564;2023-12-14T15:40:42;8.70;99.90
20750;DHT22;10535;50.664;4.564;2023-12-14T15:43:08;8.60;99.90
20750;DHT22;10535;50.664;4.564;2023-12-14T15:45:34;8.60;99.90
20750;DHT22;10535;50.664;4.564;2023-12-14T15:48:03;8.70;99.90
20750;DHT22;10535;50.664;4.564;2023-12-14T15:50:29;8.70;99.90
20750;DHT22;10535;50.664;4.564;2023-12-14T15:52:55;8.60;99.90